Time;durP1;ratioP1;P1;durP2;ratioP2;P2;SDS_P1;SDS_P2;PMS_P1;PMS_P2;Temp;Humidity;BMP_temperature;BMP_pressure;BME280_temperature;BME280_humidity;BME280_pressure;Samples;Min_cycle;Max_cycle;Signal;HPM_P1;HPM_P2
2023/06/19 00:00:57;;;;;;;4.45;3.78;;;;;;;;;;5022289;28;20029;-92
2023/06/19 00:03:23;;;;;;;5.05;3.45;;;;;;;;;;5024380;28;20025;-92
2023/06/19 00:05:49;;;;;;;5.88;3.58;;;;;;;;;;5031590;28;20327;-90
2023/06/19 00:08:15;;;;;;;4.93;3.72;;;;;;;;;;5024594;28;20021;-90
2023/06/19 00:10:41;;;;;;;5.07;3.70;;;;;;;;;;5026438;28;20460;-91
2023/06/19 00:13:07;;;;;;;7.03;3.80;;;;;;;;;;5022121;28;20469;-90
2023/06/19 00:15:33;;;;;;;5.88;3.25;;;;;;;;;;5023055;28;20033;-92
2023/06/19 00:18:01;;;;;;;6.13;3.63;;;;;;;;;;5022050;28;20029;-89
2023/06/19 00:20:27;;;;;;;4.85;3.25;;;;;;;;;;5023914;28;20026;-89
2023/06/19 00:22:53;;;;;;;6.85;4.25;;;;;;;;;;5025628;28;20034;-92
2023/06/19 00:25:20;;;;;;;6.20;3.97;;;;;;;;;;5024120;28;20036;-89
2023/06/19 00:27:46;;;;;;;6.13;3.78;;;;;;;;;;5024108;28;20021;-91
2023/06/19 00:30:12;;;;;;;4.85;3.58;;;;;;;;;;5028405;28;20084;-88
2023/06/19 00:32:46;;;;;;;5.15;4.18;;;;;;;;;;5027509;28;20124;-89
2023/06/19 00:35:15;;;;;;;5.07;3.85;;;;;;;;;;5025424;28;20507;-89
2023/06/19 00:37:44;;;;;;;5.55;4.38;;;;;;;;;;5025199;28;20033;-84
2023/06/19 00:40:11;;;;;;;5.10;4.20;;;;;;;;;;5030036;28;20022;-89
2023/06/19 00:42:37;;;;;;;5.55;4.38;;;;;;;;;;5023606;28;20026;-90
2023/06/19 00:45:03;;;;;;;6.82;4.15;;;;;;;;;;5031850;28;20036;-90
2023/06/19 00:47:31;;;;;;;4.70;4.20;;;;;;;;;;5021538;28;20049;-91
2023/06/19 00:49:57;;;;;;;4.45;4.05;;;;;;;;;;5026005;28;20108;-89
2023/06/19 00:52:23;;;;;;;4.45;3.75;;;;;;;;;;5026920;28;20065;-89
2023/06/19 00:54:49;;;;;;;5.25;4.05;;;;;;;;;;5035676;28;20052;-89
2023/06/19 00:57:15;;;;;;;7.50;3.90;;;;;;;;;;5022005;28;20162;-89
2023/06/19 00:59:41;;;;;;;4.85;3.92;;;;;;;;;;5026836;28;20484;-89
2023/06/19 01:02:07;;;;;;;6.05;4.40;;;;;;;;;;5027224;28;20037;-89
2023/06/19 01:04:33;;;;;;;5.18;4.38;;;;;;;;;;5025571;28;20033;-88
2023/06/19 01:07:09;;;;;;;5.43;4.10;;;;;;;;;;5022674;28;20025;-90
2023/06/19 01:09:40;;;;;;;5.72;4.43;;;;;;;;;;5022402;28;20082;-91
2023/06/19 01:12:13;;;;;;;4.85;4.18;;;;;;;;;;5029886;28;20042;-91
2023/06/19 01:14:41;;;;;;;6.15;4.57;;;;;;;;;;5023176;28;20572;-87
2023/06/19 01:17:07;;;;;;;8.32;4.97;;;;;;;;;;5025123;28;20068;-88
2023/06/19 01:19:33;;;;;;;6.38;4.45;;;;;;;;;;5024363;28;20089;-86
2023/06/19 01:22:02;;;;;;;5.80;4.95;;;;;;;;;;5022914;28;20064;-88
2023/06/19 01:24:28;;;;;;;5.70;5.07;;;;;;;;;;5027806;28;20075;-86
2023/06/19 01:26:54;;;;;;;6.93;4.93;;;;;;;;;;5025698;28;20045;-88
2023/06/19 01:29:20;;;;;;;5.57;4.70;;;;;;;;;;5027114;28;20059;-83
2023/06/19 01:31:49;;;;;;;6.43;4.70;;;;;;;;;;5043550;28;20030;-88
2023/06/19 01:34:15;;;;;;;9.75;5.50;;;;;;;;;;5034451;28;20056;-81
2023/06/19 01:36:41;;;;;;;7.95;5.53;;;;;;;;;;5030170;28;20030;-87
2023/06/19 01:39:09;;;;;;;5.82;5.10;;;;;;;;;;5037212;28;20033;-83
2023/06/19 01:41:37;;;;;;;7.85;4.68;;;;;;;;;;5030337;28;20116;-85
2023/06/19 01:44:04;;;;;;;5.28;4.78;;;;;;;;;;5031488;28;20038;-83
2023/06/19 01:46:30;;;;;;;6.30;5.05;;;;;;;;;;5027746;28;20091;-87
2023/06/19 01:48:56;;;;;;;6.60;5.57;;;;;;;;;;5030640;28;20050;-83
2023/06/19 01:51:22;;;;;;;7.65;5.32;;;;;;;;;;5028351;28;20022;-86
2023/06/19 01:53:48;;;;;;;8.82;5.78;;;;;;;;;;5040707;28;20605;-80
2023/06/19 01:56:13;;;;;;;8.63;6.10;;;;;;;;;;5027936;28;20112;-86
2023/06/19 01:58:39;;;;;;;6.22;5.63;;;;;;;;;;5032794;28;20361;-85
2023/06/19 02:01:05;;;;;;;7.20;5.65;;;;;;;;;;5028394;28;20040;-87
2023/06/19 02:03:31;;;;;;;6.47;5.47;;;;;;;;;;5026911;28;20061;-89
2023/06/19 02:05:58;;;;;;;5.47;4.95;;;;;;;;;;5032399;28;20026;-86
2023/06/19 02:08:24;;;;;;;9.27;5.60;;;;;;;;;;5032570;28;20036;-81
2023/06/19 02:10:50;;;;;;;7.53;5.55;;;;;;;;;;5030786;28;20104;-84
2023/06/19 02:13:19;;;;;;;9.65;6.05;;;;;;;;;;5042032;28;20250;-79
2023/06/19 02:15:45;;;;;;;9.82;5.78;;;;;;;;;;5030550;28;20036;-86
2023/06/19 02:18:11;;;;;;;8.35;5.68;;;;;;;;;;5036688;28;20030;-79
2023/06/19 02:20:37;;;;;;;6.53;5.68;;;;;;;;;;5049113;28;20088;-86
2023/06/19 02:23:03;;;;;;;6.45;5.57;;;;;;;;;;5039527;28;20033;-81
2023/06/19 02:25:29;;;;;;;6.13;5.53;;;;;;;;;;5024387;28;20087;-84
2023/06/19 02:27:55;;;;;;;8.55;6.28;;;;;;;;;;5034900;28;20029;-87
2023/06/19 02:30:21;;;;;;;7.55;6.00;;;;;;;;;;5025051;28;20369;-90
2023/06/19 02:32:47;;;;;;;9.48;5.85;;;;;;;;;;5028670;28;20064;-82
2023/06/19 02:35:15;;;;;;;7.68;5.60;;;;;;;;;;5030162;28;20036;-83
2023/06/19 02:37:41;;;;;;;7.30;5.75;;;;;;;;;;5017578;28;20144;-82
2023/06/19 02:40:09;;;;;;;8.07;5.30;;;;;;;;;;5029390;28;20062;-81
2023/06/19 02:42:35;;;;;;;9.50;5.35;;;;;;;;;;5020015;28;20033;-81
2023/06/19 02:45:03;;;;;;;6.97;5.78;;;;;;;;;;5020478;28;20350;-82
2023/06/19 02:47:32;;;;;;;9.63;5.18;;;;;;;;;;5019199;28;20091;-82
2023/06/19 02:50:02;;;;;;;5.65;5.00;;;;;;;;;;5021010;28;20107;-82
2023/06/19 02:52:28;;;;;;;10.55;5.25;;;;;;;;;;5023984;28;20031;-81
2023/06/19 02:54:56;;;;;;;6.97;5.72;;;;;;;;;;5020784;28;20045;-81
2023/06/19 02:57:22;;;;;;;8.43;6.07;;;;;;;;;;5018873;28;20101;-82
2023/06/19 02:59:48;;;;;;;8.27;5.20;;;;;;;;;;5021178;28;20292;-82
2023/06/19 03:02:14;;;;;;;6.32;5.22;;;;;;;;;;5022513;28;20054;-81
2023/06/19 03:04:41;;;;;;;6.50;5.22;;;;;;;;;;5037027;28;20037;-81
2023/06/19 03:07:07;;;;;;;7.82;5.20;;;;;;;;;;5026440;28;20194;-80
2023/06/19 03:09:33;;;;;;;7.88;5.18;;;;;;;;;;5017564;28;20026;-82
2023/06/19 03:11:59;;;;;;;8.93;5.90;;;;;;;;;;5021488;28;20064;-81
2023/06/19 03:14:25;;;;;;;8.98;6.15;;;;;;;;;;5023266;28;20100;-82
2023/06/19 03:16:51;;;;;;;10.40;5.43;;;;;;;;;;5024480;28;20193;-81
2023/06/19 03:19:17;;;;;;;9.40;5.93;;;;;;;;;;5024860;28;20048;-81
2023/06/19 03:21:43;;;;;;;9.65;5.18;;;;;;;;;;5030121;28;21720;-80
2023/06/19 03:24:08;;;;;;;8.70;5.15;;;;;;;;;;5039671;28;20037;-80
2023/06/19 03:26:34;;;;;;;12.32;5.63;;;;;;;;;;5026004;28;20072;-80
2023/06/19 03:29:03;;;;;;;7.80;5.82;;;;;;;;;;5025042;28;20429;-80
2023/06/19 03:31:29;;;;;;;6.13;5.53;;;;;;;;;;5023432;28;20065;-80
2023/06/19 03:33:55;;;;;;;6.93;6.22;;;;;;;;;;5027350;28;20045;-80
2023/06/19 03:36:24;;;;;;;10.63;5.63;;;;;;;;;;5023816;28;20466;-80
2023/06/19 03:38:50;;;;;;;7.97;5.20;;;;;;;;;;5023828;28;20040;-79
2023/06/19 03:41:16;;;;;;;7.00;5.13;;;;;;;;;;5026641;28;20025;-80
2023/06/19 03:43:42;;;;;;;5.13;4.50;;;;;;;;;;5023396;28;20064;-78
2023/06/19 03:46:08;;;;;;;10.07;5.20;;;;;;;;;;5042700;28;20042;-79
2023/06/19 03:48:34;;;;;;;8.77;4.80;;;;;;;;;;5030664;28;20041;-78
2023/06/19 03:51:00;;;;;;;6.57;5.07;;;;;;;;;;5044592;28;20561;-78
2023/06/19 03:53:27;;;;;;;5.43;4.45;;;;;;;;;;5029012;28;20021;-78
2023/06/19 03:55:53;;;;;;;6.68;4.32;;;;;;;;;;5041900;28;20479;-78
2023/06/19 03:58:19;;;;;;;6.78;4.35;;;;;;;;;;5051666;28;20068;-77
2023/06/19 04:00:45;;;;;;;9.90;4.22;;;;;;;;;;5055910;28;20044;-79
2023/06/19 04:03:11;;;;;;;7.30;4.25;;;;;;;;;;5036145;28;20040;-77
2023/06/19 04:05:41;;;;;;;6.28;4.28;;;;;;;;;;5039544;28;20029;-77
2023/06/19 04:08:07;;;;;;;6.85;3.90;;;;;;;;;;5048052;28;20029;-77
2023/06/19 04:10:33;;;;;;;6.93;3.78;;;;;;;;;;5039640;28;20038;-79
2023/06/19 04:12:59;;;;;;;8.13;4.43;;;;;;;;;;5037786;28;20026;-77
2023/06/19 04:15:25;;;;;;;8.68;3.85;;;;;;;;;;5042842;28;20025;-79
2023/06/19 04:17:51;;;;;;;5.22;3.47;;;;;;;;;;5055139;28;20026;-77
2023/06/19 04:20:17;;;;;;;6.22;3.60;;;;;;;;;;5035731;28;20033;-80
2023/06/19 04:22:43;;;;;;;4.80;3.38;;;;;;;;;;5057458;28;20038;-79
2023/06/19 04:25:10;;;;;;;3.95;3.15;;;;;;;;;;5038368;28;20143;-78
2023/06/19 04:27:36;;;;;;;6.30;3.38;;;;;;;;;;5043333;28;20037;-77
2023/06/19 04:30:04;;;;;;;6.35;3.20;;;;;;;;;;5046509;28;20061;-76
2023/06/19 04:32:30;;;;;;;7.22;3.65;;;;;;;;;;5041302;28;20029;-76
2023/06/19 04:34:56;;;;;;;5.53;3.10;;;;;;;;;;5035099;28;20045;-78
2023/06/19 04:37:22;;;;;;;4.80;3.15;;;;;;;;;;5039838;28;20258;-77
2023/06/19 04:39:48;;;;;;;8.30;2.70;;;;;;;;;;5036050;28;20045;-78
2023/06/19 04:42:19;;;;;;;4.72;3.25;;;;;;;;;;5037886;28;20045;-77
2023/06/19 04:44:45;;;;;;;8.35;2.90;;;;;;;;;;5056322;28;20046;-78
2023/06/19 04:47:11;;;;;;;3.85;2.97;;;;;;;;;;5040333;28;20025;-77
2023/06/19 04:49:37;;;;;;;4.45;3.28;;;;;;;;;;5037771;28;20301;-77
2023/06/19 04:52:03;;;;;;;3.92;2.95;;;;;;;;;;5043424;28;20009;-77
2023/06/19 04:54:32;;;;;;;4.45;2.72;;;;;;;;;;5038201;28;20045;-79
2023/06/19 04:56:58;;;;;;;7.45;3.38;;;;;;;;;;5037664;28;20022;-79
2023/06/19 04:59:24;;;;;;;5.18;3.10;;;;;;;;;;5041135;28;20030;-76
2023/06/19 05:01:53;;;;;;;3.30;2.50;;;;;;;;;;5050291;28;20072;-79
2023/06/19 05:04:19;;;;;;;4.45;2.53;;;;;;;;;;5037466;28;20041;-77
2023/06/19 05:06:45;;;;;;;4.00;2.45;;;;;;;;;;5055016;28;20041;-77
2023/06/19 05:09:12;;;;;;;3.45;2.50;;;;;;;;;;5040969;28;20201;-77
2023/06/19 05:11:38;;;;;;;4.60;2.55;;;;;;;;;;5040052;28;20101;-77
2023/06/19 05:14:04;;;;;;;6.15;2.72;;;;;;;;;;5038232;28;20094;-78
2023/06/19 05:16:30;;;;;;;4.20;2.45;;;;;;;;;;5036087;28;20030;-80
2023/06/19 05:18:56;;;;;;;7.00;2.65;;;;;;;;;;5030010;28;20025;-78
2023/06/19 05:21:22;;;;;;;2.65;2.05;;;;;;;;;;5039834;28;20026;-78
2023/06/19 05:23:50;;;;;;;2.65;2.13;;;;;;;;;;5039336;28;20037;-77
2023/06/19 05:26:16;;;;;;;4.93;2.70;;;;;;;;;;5040038;28;20089;-75
2023/06/19 05:28:46;;;;;;;4.78;2.65;;;;;;;;;;5038722;28;20053;-77
2023/06/19 05:31:12;;;;;;;3.17;2.45;;;;;;;;;;5035280;28;20041;-79
2023/06/19 05:33:38;;;;;;;4.15;2.60;;;;;;;;;;5034567;28;20030;-77
2023/06/19 05:36:04;;;;;;;5.40;2.30;;;;;;;;;;5034581;28;20034;-77
2023/06/19 05:38:30;;;;;;;3.20;2.15;;;;;;;;;;5034920;28;20063;-78
2023/06/19 05:40:57;;;;;;;3.13;2.33;;;;;;;;;;5032302;28;20398;-78
2023/06/19 05:43:24;;;;;;;5.20;2.08;;;;;;;;;;5038497;28;20030;-78
2023/06/19 05:45:50;;;;;;;3.38;2.38;;;;;;;;;;5032815;28;20026;-76
2023/06/19 05:48:16;;;;;;;3.38;1.77;;;;;;;;;;5020152;28;20065;-78
2023/06/19 05:50:42;;;;;;;4.57;2.10;;;;;;;;;;5031719;28;20109;-79
2023/06/19 05:53:08;;;;;;;4.03;1.88;;;;;;;;;;5030097;28;20025;-79
2023/06/19 05:55:34;;;;;;;3.53;1.88;;;;;;;;;;5046482;28;20455;-78
2023/06/19 05:58:01;;;;;;;5.18;2.28;;;;;;;;;;5023239;28;20064;-79
2023/06/19 06:00:27;;;;;;;4.43;1.80;;;;;;;;;;5021065;28;20029;-80
2023/06/19 06:02:53;;;;;;;2.28;1.42;;;;;;;;;;5019648;28;20045;-80
2023/06/19 06:05:20;;;;;;;2.42;1.40;;;;;;;;;;5021330;28;20095;-78
2023/06/19 06:07:46;;;;;;;2.30;1.60;;;;;;;;;;5020294;28;20025;-78
2023/06/19 06:10:13;;;;;;;4.30;1.45;;;;;;;;;;5020754;28;20022;-81
2023/06/19 06:12:39;;;;;;;3.95;1.35;;;;;;;;;;5028614;28;20025;-79
2023/06/19 06:15:07;;;;;;;3.25;1.40;;;;;;;;;;5018359;28;20045;-80
2023/06/19 06:17:32;;;;;;;1.75;1.00;;;;;;;;;;5036542;28;20026;-80
2023/06/19 06:19:58;;;;;;;2.08;1.10;;;;;;;;;;5028171;28;20040;-81
2023/06/19 06:22:24;;;;;;;2.83;1.25;;;;;;;;;;5020849;28;20033;-81
2023/06/19 06:24:51;;;;;;;4.22;1.40;;;;;;;;;;5021070;28;20029;-83
2023/06/19 06:27:17;;;;;;;2.35;1.48;;;;;;;;;;5023370;28;20064;-81
2023/06/19 06:29:43;;;;;;;2.58;1.30;;;;;;;;;;5037233;28;20362;-77
2023/06/19 06:32:10;;;;;;;2.58;1.17;;;;;;;;;;5032202;28;20029;-82
2023/06/19 06:34:36;;;;;;;4.60;1.30;;;;;;;;;;5019939;28;20085;-79
2023/06/19 06:37:02;;;;;;;2.40;1.40;;;;;;;;;;5023369;28;20120;-80
2023/06/19 06:39:28;;;;;;;3.17;1.75;;;;;;;;;;5018225;28;20032;-81
2023/06/19 06:41:54;;;;;;;3.97;1.30;;;;;;;;;;5022066;28;20038;-80
2023/06/19 06:44:20;;;;;;;3.03;1.52;;;;;;;;;;5026955;28;20034;-79
2023/06/19 06:46:46;;;;;;;2.88;1.48;;;;;;;;;;5020497;28;20025;-79
2023/06/19 06:49:12;;;;;;;6.03;1.50;;;;;;;;;;5037085;28;21723;-80
2023/06/19 06:51:38;;;;;;;2.75;1.27;;;;;;;;;;5020210;28;20064;-79
2023/06/19 06:54:04;;;;;;;3.20;0.95;;;;;;;;;;5023383;28;20099;-81
2023/06/19 06:56:30;;;;;;;2.42;1.02;;;;;;;;;;5026328;28;20049;-82
2023/06/19 06:58:56;;;;;;;2.13;0.98;;;;;;;;;;5024285;28;20033;-81
2023/06/19 07:01:22;;;;;;;1.98;1.40;;;;;;;;;;5025339;28;20028;-77
2023/06/19 07:03:48;;;;;;;8.68;1.30;;;;;;;;;;5027928;28;20033;-82
2023/06/19 07:06:14;;;;;;;3.53;1.23;;;;;;;;;;5026631;28;20462;-85
2023/06/19 07:08:40;;;;;;;3.80;1.08;;;;;;;;;;5033856;28;20040;-87
2023/06/19 07:11:07;;;;;;;1.95;0.80;;;;;;;;;;5042672;28;20026;-85
2023/06/19 07:13:33;;;;;;;2.03;1.00;;;;;;;;;;5030417;28;20048;-85
2023/06/19 07:16:04;;;;;;;7.93;1.00;;;;;;;;;;5021228;28;20030;-85
2023/06/19 07:18:30;;;;;;;1.05;0.80;;;;;;;;;;5030709;28;20065;-82
2023/06/19 07:20:56;;;;;;;1.63;0.93;;;;;;;;;;5034852;28;20127;-89
2023/06/19 07:23:22;;;;;;;2.45;0.95;;;;;;;;;;5021891;28;20036;-86
2023/06/19 07:25:48;;;;;;;3.65;0.75;;;;;;;;;;5024751;28;20026;-87
2023/06/19 07:28:15;;;;;;;2.38;0.95;;;;;;;;;;5032389;28;20354;-85
2023/06/19 07:30:41;;;;;;;2.03;0.88;;;;;;;;;;5024247;28;20036;-88
2023/06/19 07:33:07;;;;;;;1.20;0.77;;;;;;;;;;5025147;28;20034;-89
2023/06/19 07:35:34;;;;;;;2.55;0.70;;;;;;;;;;5027309;28;20120;-85
2023/06/19 07:38:02;;;;;;;1.95;1.00;;;;;;;;;;5023118;28;20108;-85
2023/06/19 07:40:30;;;;;;;2.30;1.20;;;;;;;;;;5022915;28;20056;-86
2023/06/19 07:42:56;;;;;;;2.15;0.90;;;;;;;;;;5026217;28;20044;-82
2023/06/19 07:45:23;;;;;;;5.97;0.80;;;;;;;;;;5022358;28;20101;-81
2023/06/19 07:47:56;;;;;;;1.42;1.00;;;;;;;;;;5031083;28;20029;-85
2023/06/19 07:50:22;;;;;;;1.30;1.02;;;;;;;;;;5022715;28;20071;-89
2023/06/19 07:52:48;;;;;;;1.85;0.85;;;;;;;;;;5026561;28;20049;-87
2023/06/19 07:55:14;;;;;;;3.53;1.35;;;;;;;;;;5023514;28;20543;-88
2023/06/19 07:57:40;;;;;;;3.00;2.00;;;;;;;;;;5026458;28;20029;-89
2023/06/19 08:00:12;;;;;;;2.65;1.20;;;;;;;;;;5027047;28;20514;-87
2023/06/19 08:02:39;;;;;;;5.47;1.30;;;;;;;;;;5024821;28;20079;-85
2023/06/19 08:05:30;;;;;;;2.90;1.30;;;;;;;;;;5029092;28;20045;-88
2023/06/19 08:07:57;;;;;;;5.57;1.90;;;;;;;;;;5022225;28;20473;-89
2023/06/19 08:10:23;;;;;;;4.05;1.45;;;;;;;;;;5021203;28;20438;-83
2023/06/19 08:13:03;;;;;;;2.58;1.40;;;;;;;;;;5020298;28;20087;-88
2023/06/19 08:15:28;;;;;;;5.22;1.50;;;;;;;;;;5032601;28;20017;-88
2023/06/19 08:17:54;;;;;;;3.08;1.10;;;;;;;;;;5024817;28;20130;-88
2023/06/19 08:20:21;;;;;;;4.00;1.80;;;;;;;;;;5038682;28;20025;-87
2023/06/19 08:22:47;;;;;;;2.90;1.48;;;;;;;;;;5021481;28;20076;-89
2023/06/19 08:25:13;;;;;;;4.05;1.27;;;;;;;;;;5023466;28;20022;-84
2023/06/19 08:27:42;;;;;;;2.72;1.27;;;;;;;;;;5025468;28;20029;-88
2023/06/19 08:30:20;;;;;;;1.90;1.38;;;;;;;;;;5026365;28;21655;-91
2023/06/19 08:32:48;;;;;;;3.60;1.30;;;;;;;;;;5021446;28;20044;-89
2023/06/19 08:35:16;;;;;;;6.15;1.55;;;;;;;;;;5021530;28;20022;-91
2023/06/19 08:37:42;;;;;;;2.17;1.27;;;;;;;;;;5019919;28;20037;-86
2023/06/19 08:40:09;;;;;;;5.32;1.27;;;;;;;;;;5027848;28;20037;-86
2023/06/19 08:42:39;;;;;;;2.97;1.35;;;;;;;;;;5024174;28;20524;-92
2023/06/19 08:45:05;;;;;;;2.53;1.40;;;;;;;;;;5024567;28;20439;-89
2023/06/19 08:47:34;;;;;;;4.93;1.58;;;;;;;;;;5025959;28;20069;-92
2023/06/19 08:50:01;;;;;;;5.15;1.50;;;;;;;;;;5024650;28;20049;-93
2023/06/19 08:52:27;;;;;;;2.20;2.00;;;;;;;;;;5023782;28;20063;-92
2023/06/19 08:54:53;;;;;;;4.00;1.83;;;;;;;;;;5025441;28;20040;-87
2023/06/19 08:57:19;;;;;;;2.88;1.70;;;;;;;;;;5029923;28;20243;-91
2023/06/19 08:59:49;;;;;;;2.50;1.70;;;;;;;;;;5031055;28;20040;-87
2023/06/19 09:02:15;;;;;;;3.50;1.83;;;;;;;;;;5021602;28;20029;-89
2023/06/19 09:04:41;;;;;;;4.13;2.30;;;;;;;;;;5029169;28;20061;-89
2023/06/19 09:07:08;;;;;;;3.17;1.70;;;;;;;;;;5022763;28;20116;-85
2023/06/19 09:09:34;;;;;;;2.97;1.60;;;;;;;;;;5039533;28;20029;-90
2023/06/19 09:12:00;;;;;;;2.88;2.03;;;;;;;;;;5036448;28;20030;-92
2023/06/19 09:14:33;;;;;;;7.50;2.55;;;;;;;;;;5026413;28;20103;-87
2023/06/19 09:16:59;;;;;;;6.20;2.28;;;;;;;;;;5043834;28;20047;-87
2023/06/19 09:19:25;;;;;;;3.65;2.40;;;;;;;;;;5021069;28;20029;-90
2023/06/19 09:21:51;;;;;;;2.92;2.08;;;;;;;;;;5025879;28;20080;-90
2023/06/19 09:24:20;;;;;;;5.65;2.50;;;;;;;;;;5024439;28;20034;-90
2023/06/19 09:26:46;;;;;;;4.22;2.85;;;;;;;;;;5022972;28;20025;-89
2023/06/19 09:29:12;;;;;;;5.40;2.65;;;;;;;;;;5020793;28;20026;-88
2023/06/19 09:31:41;;;;;;;6.47;3.17;;;;;;;;;;5022173;28;20093;-90
2023/06/19 09:34:07;;;;;;;8.23;2.65;;;;;;;;;;5025962;28;20116;-91
2023/06/19 09:36:34;;;;;;;8.90;3.00;;;;;;;;;;5021188;28;20033;-91
2023/06/19 09:39:01;;;;;;;5.75;3.05;;;;;;;;;;5026170;28;20034;-88
2023/06/19 09:41:29;;;;;;;9.90;2.70;;;;;;;;;;5025174;28;20025;-89
2023/06/19 09:43:59;;;;;;;3.33;2.60;;;;;;;;;;5029431;28;20026;-88
2023/06/19 09:46:33;;;;;;;7.68;2.78;;;;;;;;;;5036537;28;20028;-89
2023/06/19 09:49:01;;;;;;;6.70;2.67;;;;;;;;;;5022509;28;20241;-88
2023/06/19 09:51:31;;;;;;;6.07;2.70;;;;;;;;;;5024810;28;20127;-90
2023/06/19 09:53:58;;;;;;;6.18;3.13;;;;;;;;;;5020483;28;20044;-90
2023/06/19 09:56:26;;;;;;;9.15;2.72;;;;;;;;;;5023355;28;20040;-91
2023/06/19 09:58:54;;;;;;;5.68;2.97;;;;;;;;;;5023998;28;20069;-87
2023/06/19 10:01:20;;;;;;;4.72;2.63;;;;;;;;;;5021644;28;20037;-87
2023/06/19 10:03:46;;;;;;;5.53;3.03;;;;;;;;;;5024327;28;20085;-90
2023/06/19 10:06:16;;;;;;;5.40;3.03;;;;;;;;;;5023066;28;21429;-90
2023/06/19 10:08:43;;;;;;;4.28;2.97;;;;;;;;;;5028825;28;20065;-90
2023/06/19 10:11:10;;;;;;;5.93;3.22;;;;;;;;;;5027033;28;20034;-88
2023/06/19 10:13:40;;;;;;;7.20;3.60;;;;;;;;;;5038393;28;20120;-88
2023/06/19 10:16:06;;;;;;;6.03;3.25;;;;;;;;;;5026201;28;20507;-88
2023/06/19 10:18:33;;;;;;;9.70;3.10;;;;;;;;;;5022628;28;20018;-91
2023/06/19 10:21:00;;;;;;;5.22;2.65;;;;;;;;;;5019175;28;20048;-87
2023/06/19 10:23:28;;;;;;;5.28;3.47;;;;;;;;;;5018743;28;20970;-87
2023/06/19 10:25:54;;;;;;;7.32;3.33;;;;;;;;;;5023925;28;20077;-89
2023/06/19 10:28:23;;;;;;;4.50;3.55;;;;;;;;;;5027822;28;20084;-88
2023/06/19 10:31:02;;;;;;;5.57;3.13;;;;;;;;;;5026010;28;20045;-89
2023/06/19 10:33:31;;;;;;;8.23;3.47;;;;;;;;;;5033104;28;20029;-90
2023/06/19 10:35:59;;;;;;;4.03;3.05;;;;;;;;;;5027422;28;20592;-91
2023/06/19 10:38:25;;;;;;;5.63;3.25;;;;;;;;;;5028725;28;20130;-88
2023/06/19 10:40:54;;;;;;;8.93;3.92;;;;;;;;;;5031760;28;20037;-88
2023/06/19 10:43:21;;;;;;;5.60;2.88;;;;;;;;;;5045859;28;20041;-86
2023/06/19 10:45:47;;;;;;;5.93;2.78;;;;;;;;;;5029040;28;20057;-88
2023/06/19 10:48:18;;;;;;;5.47;3.20;;;;;;;;;;5028870;28;20123;-90
2023/06/19 10:50:44;;;;;;;8.70;3.60;;;;;;;;;;5029509;28;20168;-90
2023/06/19 10:53:10;;;;;;;6.03;3.25;;;;;;;;;;5029676;28;20037;-90
2023/06/19 10:55:38;;;;;;;5.22;3.60;;;;;;;;;;5029796;28;20022;-92
2023/06/19 10:58:04;;;;;;;3.85;2.80;;;;;;;;;;5029966;28;20026;-91
2023/06/19 11:00:34;;;;;;;5.15;3.33;;;;;;;;;;5026849;28;20017;-88
2023/06/19 11:03:00;;;;;;;5.65;3.25;;;;;;;;;;5028993;28;20168;-88
2023/06/19 11:05:27;;;;;;;8.85;3.45;;;;;;;;;;5034451;28;20029;-87
2023/06/19 11:07:59;;;;;;;5.68;3.28;;;;;;;;;;5037310;28;20041;-89
2023/06/19 11:10:26;;;;;;;6.70;3.33;;;;;;;;;;5048259;28;20021;-87
2023/06/19 11:12:56;;;;;;;5.15;3.05;;;;;;;;;;5024027;28;20017;-86
2023/06/19 11:15:51;;;;;;;7.90;3.58;;;;;;;;;;5029828;28;20021;-88
2023/06/19 11:18:17;;;;;;;6.40;3.60;;;;;;;;;;5025292;28;20099;-88
2023/06/19 11:20:49;;;;;;;9.43;3.10;;;;;;;;;;5028616;28;20018;-85
2023/06/19 11:23:15;;;;;;;11.15;3.47;;;;;;;;;;5026575;28;20022;-89
2023/06/19 11:25:42;;;;;;;7.80;3.03;;;;;;;;;;5029145;28;20101;-88
2023/06/19 11:28:13;;;;;;;5.45;4.00;;;;;;;;;;5030690;28;20438;-89
2023/06/19 11:30:39;;;;;;;9.52;3.65;;;;;;;;;;5030887;28;21709;-90
2023/06/19 11:33:15;;;;;;;8.13;3.30;;;;;;;;;;5027319;28;20022;-87
2023/06/19 11:35:41;;;;;;;4.82;3.15;;;;;;;;;;5043043;28;20026;-88
2023/06/19 11:38:08;;;;;;;4.35;3.10;;;;;;;;;;5023805;28;20078;-89
2023/06/19 11:40:40;;;;;;;4.88;3.08;;;;;;;;;;5023723;28;20022;-90
2023/06/19 11:43:06;;;;;;;10.55;3.88;;;;;;;;;;5030669;28;20111;-88
2023/06/19 11:45:32;;;;;;;11.35;3.40;;;;;;;;;;5027516;28;20115;-87
2023/06/19 11:47:58;;;;;;;4.85;3.35;;;;;;;;;;5026603;28;20072;-90
2023/06/19 11:50:28;;;;;;;8.40;3.33;;;;;;;;;;5025866;28;20022;-89
2023/06/19 11:52:54;;;;;;;6.30;3.00;;;;;;;;;;5032945;28;20026;-90
2023/06/19 11:55:19;;;;;;;4.95;3.10;;;;;;;;;;5024380;28;20056;-90
2023/06/19 11:57:47;;;;;;;5.90;3.55;;;;;;;;;;5028689;28;20083;-89
2023/06/19 12:00:14;;;;;;;5.65;3.42;;;;;;;;;;5021948;28;20032;-88
2023/06/19 12:02:40;;;;;;;9.00;4.05;;;;;;;;;;5026201;28;20041;-87
2023/06/19 12:05:06;;;;;;;4.97;2.58;;;;;;;;;;5024515;28;20022;-88
2023/06/19 12:07:32;;;;;;;6.22;3.25;;;;;;;;;;5023561;28;21767;-89
2023/06/19 12:09:58;;;;;;;6.78;3.03;;;;;;;;;;5021894;28;20105;-88
2023/06/19 12:12:25;;;;;;;4.90;3.38;;;;;;;;;;5025968;28;20391;-87
2023/06/19 12:14:51;;;;;;;4.97;3.20;;;;;;;;;;5024347;28;20030;-85
2023/06/19 12:17:20;;;;;;;7.95;3.15;;;;;;;;;;5026533;28;20034;-89
2023/06/19 12:19:46;;;;;;;5.65;3.15;;;;;;;;;;5027915;28;20044;-88
2023/06/19 12:22:12;;;;;;;8.05;3.58;;;;;;;;;;5026157;28;20041;-87
2023/06/19 12:24:38;;;;;;;10.07;4.15;;;;;;;;;;5020586;28;20096;-88
2023/06/19 12:27:04;;;;;;;6.68;3.35;;;;;;;;;;5024604;28;20022;-87
2023/06/19 12:29:30;;;;;;;5.72;3.33;;;;;;;;;;5023353;28;20032;-87
2023/06/19 12:32:01;;;;;;;7.38;3.03;;;;;;;;;;5023474;28;20013;-91
2023/06/19 12:34:28;;;;;;;7.97;3.40;;;;;;;;;;5023380;28;20116;-85
2023/06/19 12:36:54;;;;;;;7.50;4.03;;;;;;;;;;5024903;28;20160;-89
2023/06/19 12:39:21;;;;;;;11.25;4.00;;;;;;;;;;5022087;28;20029;-85
2023/06/19 12:41:47;;;;;;;5.38;3.17;;;;;;;;;;5042307;28;20109;-90
2023/06/19 12:44:12;;;;;;;4.55;3.08;;;;;;;;;;5036468;28;20061;-87
2023/06/19 12:46:39;;;;;;;8.35;3.35;;;;;;;;;;5022049;28;20049;-88
2023/06/19 12:49:05;;;;;;;11.20;3.72;;;;;;;;;;5027094;28;20022;-87
2023/06/19 12:51:31;;;;;;;6.28;3.15;;;;;;;;;;5040616;28;20021;-86
2023/06/19 12:53:57;;;;;;;7.07;3.05;;;;;;;;;;5024759;28;20436;-85
2023/06/19 12:56:23;;;;;;;6.30;3.20;;;;;;;;;;5024178;28;20076;-87
2023/06/19 12:58:49;;;;;;;3.85;2.20;;;;;;;;;;5030210;28;20428;-87
2023/06/19 13:01:15;;;;;;;4.40;3.80;;;;;;;;;;5027760;28;20030;-87
2023/06/19 13:03:44;;;;;;;5.78;3.00;;;;;;;;;;5024550;28;20025;-87
2023/06/19 13:06:10;;;;;;;6.97;3.20;;;;;;;;;;5040948;28;20025;-88
2023/06/19 13:08:36;;;;;;;7.03;4.15;;;;;;;;;;5027497;28;20083;-87
2023/06/19 13:11:02;;;;;;;6.18;3.05;;;;;;;;;;5029736;28;20017;-86
2023/06/19 13:13:28;;;;;;;17.05;3.75;;;;;;;;;;5037878;28;20053;-89
2023/06/19 13:15:54;;;;;;;6.97;3.10;;;;;;;;;;5019889;28;20033;-86
2023/06/19 13:18:20;;;;;;;5.22;3.50;;;;;;;;;;5022906;28;20042;-86
2023/06/19 13:20:47;;;;;;;5.03;3.17;;;;;;;;;;5019582;28;20029;-87
2023/06/19 13:23:14;;;;;;;6.00;3.20;;;;;;;;;;5022938;28;20060;-87
2023/06/19 13:25:40;;;;;;;19.13;3.70;;;;;;;;;;5021831;28;20338;-89
2023/06/19 13:28:06;;;;;;;5.85;3.25;;;;;;;;;;5025542;28;20034;-88
2023/06/19 13:30:32;;;;;;;5.63;3.10;;;;;;;;;;5023211;28;20014;-88
2023/06/19 13:32:58;;;;;;;5.70;3.30;;;;;;;;;;5041031;28;20044;-88
2023/06/19 13:35:24;;;;;;;7.03;3.30;;;;;;;;;;5022241;28;20068;-87
2023/06/19 13:37:50;;;;;;;5.82;3.38;;;;;;;;;;5023633;28;20370;-87
2023/06/19 13:40:16;;;;;;;5.07;3.10;;;;;;;;;;5032677;28;20049;-86
2023/06/19 13:42:42;;;;;;;7.00;2.95;;;;;;;;;;5028593;28;20057;-88
2023/06/19 13:45:08;;;;;;;9.82;3.65;;;;;;;;;;5025638;28;20033;-88
2023/06/19 13:47:34;;;;;;;7.60;3.38;;;;;;;;;;5026541;28;20022;-86
2023/06/19 13:50:00;;;;;;;8.98;3.47;;;;;;;;;;5032636;28;20030;-87
2023/06/19 13:52:26;;;;;;;8.40;3.22;;;;;;;;;;5026427;28;20032;-88
2023/06/19 13:54:52;;;;;;;5.60;2.95;;;;;;;;;;5032150;28;20064;-87
2023/06/19 13:57:18;;;;;;;5.47;3.08;;;;;;;;;;5022075;28;20033;-86
2023/06/19 13:59:44;;;;;;;8.52;2.88;;;;;;;;;;5021676;28;20026;-86
2023/06/19 14:02:10;;;;;;;5.47;3.20;;;;;;;;;;5025400;28;20025;-87
2023/06/19 14:04:36;;;;;;;3.85;2.78;;;;;;;;;;5022938;28;20021;-86
2023/06/19 14:07:03;;;;;;;3.50;2.67;;;;;;;;;;5024110;28;20072;-85
2023/06/19 14:09:31;;;;;;;4.30;2.85;;;;;;;;;;5021381;28;20080;-87
2023/06/19 14:11:58;;;;;;;8.20;3.00;;;;;;;;;;5023485;28;20029;-86
2023/06/19 14:14:24;;;;;;;8.65;3.85;;;;;;;;;;5022079;28;20022;-87
2023/06/19 14:16:53;;;;;;;7.30;2.88;;;;;;;;;;5024497;28;20397;-88
2023/06/19 14:19:19;;;;;;;4.38;2.90;;;;;;;;;;5021625;28;20336;-88
2023/06/19 14:21:45;;;;;;;6.15;2.70;;;;;;;;;;5021281;28;20051;-85
2023/06/19 14:24:11;;;;;;;6.25;3.15;;;;;;;;;;5021570;28;20501;-86
2023/06/19 14:26:37;;;;;;;5.38;3.28;;;;;;;;;;5023827;28;20029;-86
2023/06/19 14:29:03;;;;;;;6.15;3.05;;;;;;;;;;5022253;28;20304;-87
2023/06/19 14:31:31;;;;;;;5.45;2.65;;;;;;;;;;5023664;28;20036;-85
2023/06/19 14:33:57;;;;;;;5.82;2.90;;;;;;;;;;5019681;28;20457;-84
2023/06/19 14:36:23;;;;;;;4.55;2.83;;;;;;;;;;5025846;28;20026;-87
2023/06/19 14:38:49;;;;;;;5.93;2.70;;;;;;;;;;5022121;28;20550;-88
2023/06/19 14:41:15;;;;;;;4.00;2.50;;;;;;;;;;5021878;28;20076;-86